createdAt,value
2019-03-17T00:03:28.232Z,11.80
2019-03-17T00:07:37.460Z,11.27
2019-03-17T00:11:43.840Z,10.47
2019-03-17T00:15:50.443Z,10.27
2019-03-17T00:20:19.180Z,9.37
2019-03-17T00:24:26.606Z,9.10
2019-03-17T00:28:34.238Z,10.37
2019-03-17T00:32:40.596Z,11.73
2019-03-17T00:36:46.883Z,14.83
2019-03-17T00:40:53.956Z,15.00
2019-03-17T00:45:01.965Z,14.53
2019-03-17T00:49:09.323Z,12.53
2019-03-17T00:53:16.959Z,12.00
2019-03-17T00:57:23.384Z,11.40
2019-03-17T01:01:29.763Z,12.27
2019-03-17T01:05:37.925Z,13.03
2019-03-17T01:09:44.263Z,12.40
2019-03-17T01:13:50.667Z,11.77
2019-03-17T01:18:19.437Z,13.13
2019-03-17T01:22:27.095Z,13.70
2019-03-17T01:31:21.447Z,13.77
2019-03-17T01:35:28.576Z,14.50
2019-03-17T01:39:36.028Z,13.20
2019-03-17T01:43:42.448Z,13.23
2019-03-17T01:47:48.848Z,13.50
2019-03-17T01:51:54.757Z,13.30
2019-03-17T01:56:06.582Z,12.93
2019-03-17T02:00:14.879Z,13.50
2019-03-17T02:04:21.432Z,12.03
2019-03-17T02:08:28.356Z,12.83
2019-03-17T02:12:38.149Z,13.33
2019-03-17T02:16:45.793Z,13.70
2019-03-17T02:24:59.286Z,14.33
2019-03-17T02:29:06.749Z,12.90
2019-03-17T02:33:14.281Z,13.27
2019-03-17T02:37:20.640Z,12.80
2019-03-17T02:41:27.319Z,13.23
2019-03-17T02:45:35.058Z,13.23
2019-03-17T02:49:42.782Z,13.80
2019-03-17T02:53:49.319Z,13.47
2019-03-17T02:57:56.951Z,13.53
2019-03-17T03:02:03.397Z,14.43
2019-03-17T03:06:10.151Z,12.80
2019-03-17T03:10:37.621Z,13.83
2019-03-17T03:14:44.215Z,15.13
2019-03-17T03:18:50.823Z,14.67
2019-03-17T03:22:57.258Z,15.17
2019-03-17T03:27:03.611Z,14.17
2019-03-17T03:31:10.536Z,13.50
2019-03-17T03:35:20.653Z,14.80
2019-03-17T03:39:27.088Z,15.37
2019-03-17T03:43:35.695Z,15.80
2019-03-17T03:47:43.545Z,15.70
2019-03-17T03:51:50.476Z,17.03
2019-03-17T03:56:16.322Z,17.40
2019-03-17T04:00:22.842Z,16.73
2019-03-17T04:04:30.421Z,17.13
2019-03-17T04:08:38.717Z,17.03
2019-03-17T04:12:48.786Z,17.80
2019-03-17T04:16:55.167Z,18.30
2019-03-17T04:21:01.559Z,19.07
2019-03-17T04:25:16.462Z,18.53
2019-03-17T04:29:24.225Z,18.67
2019-03-17T04:33:30.650Z,17.73
2019-03-17T04:37:37.005Z,19.53
2019-03-17T04:42:04.372Z,18.40
2019-03-17T04:46:10.673Z,19.30
2019-03-17T04:50:17.051Z,20.43
2019-03-17T04:54:24.399Z,20.53
2019-03-17T04:58:31.659Z,19.63
2019-03-17T05:02:38.272Z,19.13
2019-03-17T05:06:52.464Z,19.70
2019-03-17T05:10:54.850Z,18.33
2019-03-17T05:15:05.674Z,17.87
2019-03-17T05:19:12.000Z,17.70
2019-03-17T05:23:19.330Z,19.00
2019-03-17T05:27:27.164Z,18.47
2019-03-17T05:31:33.590Z,18.47
2019-03-17T05:35:39.852Z,18.30
2019-03-17T05:39:47.017Z,19.00
2019-03-17T05:43:54.191Z,17.83
2019-03-17T05:48:01.540Z,18.20
2019-03-17T05:52:12.210Z,18.20
2019-03-17T05:56:18.550Z,17.53
2019-03-17T06:00:25.442Z,17.50
2019-03-17T06:04:32.907Z,18.47
2019-03-17T06:08:39.218Z,18.77
2019-03-17T06:12:45.607Z,17.77
2019-03-17T06:17:00.210Z,17.43
2019-03-17T06:21:10.703Z,17.43
2019-03-17T06:25:18.908Z,18.80
2019-03-17T06:29:25.319Z,19.20
2019-03-17T06:33:34.549Z,18.07
2019-03-17T06:37:41.859Z,18.43
2019-03-17T06:41:48.236Z,17.47
2019-03-17T06:45:55.711Z,18.00
2019-03-17T06:50:06.553Z,18.30
2019-03-17T06:54:13.140Z,18.83
2019-03-17T06:58:19.439Z,18.10
2019-03-17T07:02:27.123Z,18.37
2019-03-17T07:06:38.195Z,17.93
2019-03-17T07:10:46.314Z,18.90
2019-03-17T07:14:52.580Z,17.63
2019-03-17T07:18:59.434Z,18.03
2019-03-17T07:23:09.076Z,18.37
2019-03-17T07:27:18.419Z,18.23
2019-03-17T07:31:27.976Z,18.23
2019-03-17T07:35:34.701Z,17.47
2019-03-17T07:39:43.327Z,16.73
2019-03-17T07:43:50.675Z,14.93
2019-03-17T07:47:57.163Z,14.33
2019-03-17T07:52:03.589Z,15.43
2019-03-17T07:56:10.872Z,14.93
2019-03-17T08:00:31.246Z,15.07
2019-03-17T08:04:41.623Z,14.33
2019-03-17T08:08:37.674Z,13.97
2019-03-17T08:12:44.124Z,14.20
2019-03-17T08:16:50.387Z,13.17
2019-03-17T08:20:57.718Z,11.57
2019-03-17T08:25:04.231Z,11.70
2019-03-17T08:29:10.951Z,11.17
2019-03-17T08:33:19.168Z,11.93
2019-03-17T08:37:25.560Z,11.50
2019-03-17T08:41:54.075Z,10.47
2019-03-17T08:46:00.414Z,11.47
2019-03-17T08:50:10.588Z,10.50
2019-03-17T08:54:16.959Z,10.40
2019-03-17T08:58:23.374Z,10.47
2019-03-17T09:03:09.042Z,10.33
2019-03-17T09:07:15.585Z,10.90
2019-03-17T09:11:22.088Z,10.57
2019-03-17T09:15:30.223Z,9.40
2019-03-17T09:19:36.627Z,9.17
2019-03-17T09:23:49.555Z,10.03
2019-03-17T09:27:54.287Z,9.10
2019-03-17T09:32:01.021Z,8.97
2019-03-17T09:36:09.635Z,9.37
2019-03-17T09:40:20.567Z,9.30
2019-03-17T09:44:28.479Z,8.67
2019-03-17T09:48:36.671Z,8.83
2019-03-17T09:52:43.305Z,7.00
2019-03-17T09:56:51.549Z,5.93
2019-03-17T10:00:57.895Z,6.00
2019-03-17T10:05:04.624Z,6.70
2019-03-17T10:09:10.975Z,5.73
2019-03-17T10:13:18.433Z,6.50
2019-03-17T10:17:25.311Z,6.43
2019-03-17T10:21:33.455Z,6.40
2019-03-17T10:25:41.100Z,7.10
2019-03-17T10:29:48.718Z,7.90
2019-03-17T10:33:55.004Z,8.00
2019-03-17T10:38:01.477Z,8.03
2019-03-17T10:42:09.074Z,8.47
2019-03-17T10:46:15.551Z,7.90
2019-03-17T10:50:21.872Z,8.00
2019-03-17T10:54:34.656Z,6.93
2019-03-17T10:58:40.937Z,6.10
2019-03-17T11:02:48.186Z,6.53
2019-03-17T11:07:04.478Z,6.10
2019-03-17T11:11:12.129Z,6.53
2019-03-17T11:15:18.946Z,5.70
2019-03-17T11:23:34.778Z,5.23
2019-03-17T11:27:42.979Z,5.07
2019-03-17T11:31:52.094Z,5.40
2019-03-17T11:35:58.956Z,4.97
2019-03-17T11:40:06.174Z,4.83
2019-03-17T11:44:12.210Z,5.03
2019-03-17T11:48:18.582Z,4.83
2019-03-17T11:52:26.689Z,4.50
2019-03-17T11:56:42.754Z,4.70
2019-03-17T12:00:45.323Z,4.57
2019-03-17T12:04:54.597Z,4.43
2019-03-17T12:09:04.520Z,4.10
2019-03-17T12:13:12.693Z,3.77
2019-03-17T12:17:19.297Z,3.73
2019-03-17T12:21:25.604Z,3.57
2019-03-17T12:25:54.298Z,4.00
2019-03-17T12:30:02.451Z,3.53
2019-03-17T12:34:12.077Z,4.00
2019-03-17T12:38:18.384Z,3.70
2019-03-17T12:42:25.273Z,4.10
2019-03-17T12:46:32.234Z,3.90
2019-03-17T12:50:38.605Z,3.83
2019-03-17T12:54:44.944Z,3.67
2019-03-17T12:58:53.883Z,3.53
2019-03-17T13:03:00.265Z,3.60
2019-03-17T13:07:09.470Z,3.70
2019-03-17T13:11:15.761Z,3.77
2019-03-17T13:15:23.528Z,3.30
2019-03-17T13:19:31.279Z,3.20
2019-03-17T13:23:39.450Z,3.33
2019-03-17T13:27:48.949Z,4.40
2019-03-17T13:31:59.614Z,3.50
2019-03-17T13:36:09.107Z,3.27
2019-03-17T13:40:27.689Z,3.20
2019-03-17T13:44:24.635Z,3.63
2019-03-17T13:48:31.645Z,3.13
2019-03-17T13:52:39.157Z,3.40
2019-03-17T13:56:45.533Z,3.73
2019-03-17T14:00:51.955Z,3.43
2019-03-17T14:05:00.705Z,3.30
2019-03-17T14:09:08.035Z,3.17
2019-03-17T14:13:14.370Z,2.93
2019-03-17T14:17:20.763Z,3.10
2019-03-17T14:21:29.221Z,3.00
2019-03-17T14:25:36.716Z,2.50
2019-03-17T14:29:44.603Z,2.53
2019-03-17T14:33:55.300Z,2.50
2019-03-17T14:38:03.139Z,3.00
2019-03-17T14:42:09.416Z,2.70
2019-03-17T14:46:19.006Z,2.77
2019-03-17T14:50:24.436Z,2.53
2019-03-17T14:54:31.419Z,2.70
2019-03-17T15:03:06.851Z,2.67
2019-03-17T15:07:19.669Z,2.80
2019-03-17T15:11:39.675Z,3.20
2019-03-17T15:15:46.527Z,3.00
2019-03-17T15:19:54.651Z,2.83
2019-03-17T15:24:01.349Z,3.00
2019-03-17T15:28:08.747Z,2.70
2019-03-17T15:32:15.932Z,2.70
2019-03-17T15:36:26.251Z,2.80
2019-03-17T15:40:35.343Z,3.03
2019-03-17T15:44:41.875Z,3.17
2019-03-17T15:48:58.357Z,2.80
2019-03-17T15:53:04.959Z,2.87
2019-03-17T15:57:11.374Z,3.07
2019-03-17T16:01:20.677Z,3.00
2019-03-17T16:05:49.965Z,3.00
2019-03-17T16:09:56.346Z,3.10
2019-03-17T16:18:12.785Z,6.57
2019-03-17T16:22:20.321Z,7.00
2019-03-17T16:26:26.813Z,8.10
2019-03-17T16:30:33.150Z,5.83
2019-03-17T16:34:41.220Z,4.83
2019-03-17T16:38:48.509Z,4.37
2019-03-17T16:42:55.040Z,4.77
2019-03-17T16:47:01.907Z,5.27
2019-03-17T16:51:09.219Z,5.20
2019-03-17T16:55:15.940Z,6.20
2019-03-17T16:59:22.750Z,6.43
2019-03-17T17:03:31.788Z,6.53
2019-03-17T17:07:41.986Z,7.17
2019-03-17T17:11:56.579Z,7.67
2019-03-17T17:16:01.835Z,6.83
2019-03-17T17:20:10.343Z,7.00
2019-03-17T17:24:18.515Z,6.13
2019-03-17T17:28:24.521Z,6.53
2019-03-17T17:32:30.839Z,6.47
2019-03-17T17:36:39.152Z,6.63
2019-03-17T17:40:47.437Z,6.73
2019-03-17T17:44:53.851Z,8.07
2019-03-17T17:49:00.336Z,8.53
2019-03-17T17:53:06.712Z,8.77
2019-03-17T17:57:17.093Z,8.77
2019-03-17T18:01:23.437Z,7.67
2019-03-17T18:05:32.006Z,8.53
2019-03-17T18:09:38.336Z,12.17
2019-03-17T18:13:44.752Z,14.07
2019-03-17T18:17:52.470Z,12.43
2019-03-17T18:21:59.092Z,10.90
2019-03-17T18:26:05.494Z,10.70
2019-03-17T18:30:32.484Z,10.23
2019-03-17T18:34:38.972Z,9.47
2019-03-17T18:38:46.721Z,9.30
2019-03-17T18:42:53.478Z,9.60
2019-03-17T18:47:05.831Z,10.23
2019-03-17T18:51:32.513Z,10.57
2019-03-17T18:55:39.460Z,11.63
2019-03-17T18:59:45.765Z,13.03
2019-03-17T19:04:14.094Z,13.47
2019-03-17T19:08:20.502Z,15.60
2019-03-17T19:12:26.890Z,15.43
2019-03-17T19:16:36.250Z,16.50
2019-03-17T19:20:42.676Z,17.27
2019-03-17T19:24:49.102Z,18.70
2019-03-17T19:28:55.926Z,18.90
2019-03-17T19:33:04.540Z,18.80
2019-03-17T19:37:12.313Z,18.43
2019-03-17T19:41:19.516Z,17.30
2019-03-17T19:45:27.906Z,16.27
2019-03-17T19:49:34.307Z,15.97
2019-03-17T19:53:41.320Z,15.17
2019-03-17T19:57:47.773Z,14.83
2019-03-17T20:01:54.199Z,15.27
2019-03-17T20:06:02.566Z,15.10
2019-03-17T20:10:13.027Z,18.10
2019-03-17T20:14:19.464Z,16.60
2019-03-17T20:18:25.829Z,17.40
2019-03-17T20:22:32.195Z,17.50
2019-03-17T20:26:38.749Z,16.40
2019-03-17T20:30:46.562Z,16.63
2019-03-17T20:34:53.120Z,16.53
2019-03-17T20:38:59.872Z,17.10
2019-03-17T20:43:18.821Z,17.20
2019-03-17T20:47:16.910Z,17.70
2019-03-17T20:52:01.973Z,17.53
2019-03-17T20:56:08.473Z,19.33
2019-03-17T21:00:16.746Z,20.43
2019-03-17T21:04:23.328Z,17.63
2019-03-17T21:08:29.689Z,21.13
2019-03-17T21:12:36.053Z,20.53
2019-03-17T21:16:43.510Z,19.00
2019-03-17T21:20:49.853Z,18.03
2019-03-17T21:24:56.472Z,18.10
2019-03-17T21:29:02.773Z,19.10
2019-03-17T21:33:09.707Z,20.30
2019-03-17T21:37:16.385Z,17.70
2019-03-17T21:41:23.729Z,19.87
2019-03-17T21:45:31.288Z,19.57
2019-03-17T21:49:40.612Z,17.73
2019-03-17T21:53:47.158Z,16.60
2019-03-17T21:57:53.647Z,17.80
2019-03-17T22:02:12.302Z,17.60
2019-03-17T22:06:10.548Z,16.30
2019-03-17T22:10:17.268Z,16.87
2019-03-17T22:14:26.617Z,12.20
2019-03-17T22:18:32.962Z,10.47
2019-03-17T22:22:41.995Z,15.37
2019-03-17T22:26:48.719Z,12.83
2019-03-17T22:30:55.063Z,13.60
2019-03-17T22:35:02.619Z,10.63
2019-03-17T22:39:11.502Z,9.27
2019-03-17T22:43:17.840Z,11.30
2019-03-17T22:47:24.203Z,10.13
2019-03-17T22:51:31.121Z,8.50
2019-03-17T22:55:38.848Z,6.43
2019-03-17T22:59:45.240Z,3.50
2019-03-17T23:03:51.984Z,3.67
2019-03-17T23:08:17.274Z,4.27
2019-03-17T23:12:24.068Z,3.63
2019-03-17T23:16:30.948Z,3.77
2019-03-17T23:20:58.180Z,4.20
2019-03-17T23:25:07.061Z,2.10
2019-03-17T23:29:18.629Z,2.37
2019-03-17T23:33:25.945Z,2.93
2019-03-17T23:37:37.757Z,1.80
2019-03-17T23:41:44.853Z,1.73
2019-03-17T23:45:54.393Z,2.07
2019-03-17T23:50:01.343Z,1.57
2019-03-17T23:54:10.873Z,1.63
2019-03-17T23:58:19.491Z,1.77
